Time,TemperatureF,DewpointF,PressureIn,WindDirection,WindDirectionDegrees,WindSpeedMPH,WindSpeedGustMPH,Humidity,HourlyPrecipIn,Conditions,Clouds,dailyrainin,SoftwareType,DateUTC
2013-06-13 06:58:00,72.4,70.0,30.00,West,271,0.0,0.0,92,0.00,,,0.00,weatherlink.com 1.10,2013-06-13 10:58:00,
2013-06-13 07:13:00,72.5,70.0,30.00,West,271,0.0,0.0,92,0.00,,,0.00,weatherlink.com 1.10,2013-06-13 11:13:00,
2013-06-13 07:28:00,73.0,71.0,30.01,West,271,0.0,0.0,93,0.00,,,0.00,weatherlink.com 1.10,2013-06-13 11:28:00,
2013-06-13 07:43:00,73.7,72.0,30.02,West,271,0.0,1.0,93,0.00,,,0.00,weatherlink.com 1.10,2013-06-13 11:43:00,
2013-06-13 07:58:00,74.4,72.0,30.02,SW,232,0.0,2.0,92,0.00,,,0.00,weatherlink.com 1.10,2013-06-13 11:58:00,
2013-06-13 08:13:00,75.3,72.0,30.03,SW,232,0.0,1.0,90,0.00,,,0.00,weatherlink.com 1.10,2013-06-13 12:13:00,
2013-06-13 08:28:00,76.8,73.0,30.03,SW,233,0.0,3.0,87,0.00,,,0.00,weatherlink.com 1.10,2013-06-13 12:28:00,
2013-06-13 08:43:00,78.5,73.0,30.03,WSW,253,0.0,1.0,82,0.00,,,0.00,weatherlink.com 1.10,2013-06-13 12:43:00,
2013-06-13 08:59:00,80.0,71.0,30.04,WSW,255,0.0,9.0,75,0.00,,,0.00,weatherlink.com 1.10,2013-06-13 12:59:00,
2013-06-13 09:14:00,81.3,72.0,30.04,WSW,256,0.0,6.0,73,0.00,,,0.00,weatherlink.com 1.10,2013-06-13 13:14:00,
2013-06-13 09:29:00,82.6,72.0,30.04,WSW,244,0.0,5.0,71,0.00,,,0.00,weatherlink.com 1.10,2013-06-13 13:29:00,
2013-06-13 09:44:00,83.6,73.0,30.04,West,263,0.0,4.0,71,0.00,,,0.00,weatherlink.com 1.10,2013-06-13 13:44:00,
2013-06-13 09:59:00,84.5,72.0,30.03,West,263,3.0,7.0,67,0.00,,,0.00,weatherlink.com 1.10,2013-06-13 13:59:00,
2013-06-13 10:14:00,85.5,73.0,30.04,WSW,250,1.0,9.0,66,0.00,,,0.00,weatherlink.com 1.10,2013-06-13 14:14:00,
2013-06-13 10:29:00,86.5,73.0,30.04,West,260,0.0,10.0,64,0.00,,,0.00,weatherlink.com 1.10,2013-06-13 14:29:00,
2013-06-13 10:44:00,87.3,74.0,30.03,WNW,288,2.0,10.0,65,0.00,,,0.00,weatherlink.com 1.10,2013-06-13 14:44:00,
2013-06-13 10:59:00,88.2,73.0,30.03,West,279,0.0,10.0,61,0.00,,,0.00,weatherlink.com 1.10,2013-06-13 14:59:00,
2013-06-13 11:14:00,89.0,74.0,30.03,West,268,0.0,10.0,61,0.00,,,0.00,weatherlink.com 1.10,2013-06-13 15:14:00,
2013-06-13 11:29:00,89.7,73.0,30.03,WSW,252,0.0,6.0,59,0.00,,,0.00,weatherlink.com 1.10,2013-06-13 15:29:00,
2013-06-13 11:44:00,90.7,74.0,30.03,West,263,0.0,7.0,59,0.00,,,0.00,weatherlink.com 1.10,2013-06-13 15:44:00,
2013-06-13 11:59:00,91.0,74.0,30.02,WSW,254,0.0,3.0,58,0.00,,,0.00,weatherlink.com 1.10,2013-06-13 15:59:00,
2013-06-13 12:14:00,91.0,74.0,30.02,West,275,0.0,2.0,58,0.00,,,0.00,weatherlink.com 1.10,2013-06-13 16:14:00,
2013-06-13 12:29:00,91.1,74.0,30.02,West,276,0.0,1.0,57,0.00,,,0.00,weatherlink.com 1.10,2013-06-13 16:29:00,
2013-06-13 12:44:00,90.8,76.0,30.01,ENE,77,8.0,8.0,63,0.00,,,0.00,weatherlink.com 1.10,2013-06-13 16:44:00,
2013-06-13 12:59:00,91.2,75.0,30.01,East,80,0.0,10.0,60,0.00,,,0.00,weatherlink.com 1.10,2013-06-13 16:59:00,
2013-06-13 13:14:00,90.5,76.0,30.01,ENE,71,5.0,12.0,63,0.00,,,0.00,weatherlink.com 1.10,2013-06-13 17:14:00,
2013-06-13 13:29:00,89.9,75.0,30.01,East,95,7.0,11.0,62,0.00,,,0.00,weatherlink.com 1.10,2013-06-13 17:29:00,
2013-06-13 13:44:00,89.7,75.0,30.00,ESE,123,7.0,12.0,63,0.00,,,0.00,weatherlink.com 1.10,2013-06-13 17:44:00,
2013-06-13 13:59:00,90.0,75.0,30.00,SE,127,0.0,13.0,62,0.00,,,0.00,weatherlink.com 1.10,2013-06-13 17:59:00,
2013-06-13 14:14:00,89.8,76.0,29.99,ESE,107,11.0,13.0,63,0.00,,,0.00,weatherlink.com 1.10,2013-06-13 18:14:00,
2013-06-13 14:29:00,90.3,75.0,29.98,ESE,117,8.0,14.0,61,0.00,,,0.00,weatherlink.com 1.10,2013-06-13 18:29:00,
2013-06-13 14:44:00,90.4,77.0,29.97,SE,132,0.0,12.0,64,0.00,,,0.00,weatherlink.com 1.10,2013-06-13 18:44:00,
2013-06-13 14:59:00,90.8,75.0,29.96,SE,134,7.0,15.0,61,0.00,,,0.00,weatherlink.com 1.10,2013-06-13 18:59:00,
2013-06-13 15:15:00,91.1,75.0,29.95,SE,143,2.0,13.0,60,0.00,,,0.00,weatherlink.com 1.10,2013-06-13 19:15:00,
2013-06-13 15:30:00,91.7,76.0,29.94,ESE,119,5.0,11.0,61,0.00,,,0.00,weatherlink.com 1.10,2013-06-13 19:30:00,
2013-06-13 15:45:00,91.1,76.0,29.94,ESE,113,0.0,13.0,62,0.00,,,0.00,weatherlink.com 1.10,2013-06-13 19:45:00,
2013-06-13 16:00:00,91.0,76.0,29.93,SE,145,5.0,14.0,62,0.00,,,0.00,weatherlink.com 1.10,2013-06-13 20:00:00,
2013-06-13 16:15:00,90.8,77.0,29.93,SSE,164,4.0,15.0,64,0.00,,,0.00,weatherlink.com 1.10,2013-06-13 20:15:00,
2013-06-13 16:30:00,90.7,77.0,29.93,SSE,148,2.0,13.0,65,0.00,,,0.00,weatherlink.com 1.10,2013-06-13 20:30:00,
2013-06-13 16:45:00,91.2,77.0,29.92,SE,127,4.0,12.0,64,0.00,,,0.00,weatherlink.com 1.10,2013-06-13 20:45:00,
2013-06-13 17:00:00,90.7,76.0,29.93,ESE,122,4.0,14.0,63,0.00,,,0.00,weatherlink.com 1.10,2013-06-13 21:00:00,
2013-06-13 17:16:00,89.8,76.0,29.92,SSE,149,0.0,9.0,64,0.00,,,0.00,weatherlink.com 1.10,2013-06-13 21:16:00,
2013-06-13 17:30:00,89.5,77.0,29.92,SE,134,4.0,12.0,66,0.00,,,0.00,weatherlink.com 1.10,2013-06-13 21:30:00,
2013-06-13 17:45:00,89.3,76.0,29.91,SE,132,9.0,10.0,65,0.00,,,0.00,weatherlink.com 1.10,2013-06-13 21:45:00,
2013-06-13 18:00:00,89.1,75.0,29.91,SSE,168,5.0,9.0,64,0.00,,,0.00,weatherlink.com 1.10,2013-06-13 22:00:00,
2013-06-13 18:15:00,88.8,75.0,29.91,SSW,204,1.0,12.0,63,0.00,,,0.00,weatherlink.com 1.10,2013-06-13 22:15:00,
2013-06-13 18:30:00,88.6,74.0,29.91,SSW,212,0.0,14.0,62,0.00,,,0.00,weatherlink.com 1.10,2013-06-13 22:30:00,
2013-06-13 18:45:00,87.3,74.0,29.91,West,277,7.0,16.0,64,0.00,,,0.00,weatherlink.com 1.10,2013-06-13 22:45:00,
2013-06-13 19:00:00,87.0,74.0,29.92,West,276,2.0,15.0,66,0.00,,,0.00,weatherlink.com 1.10,2013-06-13 23:00:00,
2013-06-13 19:15:00,85.2,74.0,29.92,WSW,247,0.0,13.0,69,0.00,,,0.00,weatherlink.com 1.10,2013-06-13 23:15:00,
2013-06-13 19:30:00,84.2,74.0,29.92,West,262,6.0,12.0,71,0.00,,,0.00,weatherlink.com 1.10,2013-06-13 23:30:00,
2013-06-13 20:00:00,82.8,73.0,29.91,SW,221,2.0,8.0,71,0.00,,,0.00,weatherlink.com 1.10,2013-06-14 00:00:00,
2013-06-13 20:15:00,82.4,73.0,29.91,SW,221,0.0,5.0,72,0.00,,,0.00,weatherlink.com 1.10,2013-06-14 00:15:00,
2013-06-13 20:30:00,81.8,72.0,29.92,SSW,202,3.0,9.0,72,0.00,,,0.00,weatherlink.com 1.10,2013-06-14 00:30:00,
2013-06-13 20:45:00,81.4,72.0,29.92,SW,221,0.0,6.0,74,0.00,,,0.00,weatherlink.com 1.10,2013-06-14 00:45:00,
2013-06-13 21:00:00,80.8,72.0,29.92,SW,223,0.0,6.0,75,0.00,,,0.00,weatherlink.com 1.10,2013-06-14 01:00:00,
2013-06-13 21:15:00,80.4,72.0,29.93,SW,217,0.0,9.0,75,0.00,,,0.00,weatherlink.com 1.10,2013-06-14 01:15:00,
2013-06-13 21:30:00,80.0,72.0,29.93,SW,224,0.0,1.0,76,0.00,,,0.00,weatherlink.com 1.10,2013-06-14 01:30:00,
2013-06-13 21:45:00,79.7,72.0,29.93,SW,224,0.0,5.0,77,0.00,,,0.00,weatherlink.com 1.10,2013-06-14 01:45:00,
2013-06-13 22:00:00,79.2,72.0,29.93,SW,221,0.0,1.0,78,0.00,,,0.00,weatherlink.com 1.10,2013-06-14 02:00:00,
2013-06-13 22:15:00,78.9,72.0,29.93,SW,221,0.0,0.0,79,0.00,,,0.00,weatherlink.com 1.10,2013-06-14 02:15:00,
2013-06-13 22:30:00,78.5,72.0,29.94,SW,221,0.0,1.0,80,0.00,,,0.00,weatherlink.com 1.10,2013-06-14 02:30:00,
2013-06-13 22:45:00,78.1,72.0,29.94,SW,220,0.0,4.0,81,0.00,,,0.00,weatherlink.com 1.10,2013-06-14 02:45:00,
2013-06-13 23:00:00,77.7,71.0,29.95,SW,220,0.0,5.0,81,0.00,,,0.00,weatherlink.com 1.10,2013-06-14 03:00:00,
2013-06-13 23:15:00,77.4,72.0,29.95,SW,219,0.0,4.0,82,0.00,,,0.00,weatherlink.com 1.10,2013-06-14 03:15:00,
2013-06-13 23:30:00,77.2,72.0,29.95,SW,218,2.0,5.0,83,0.00,,,0.00,weatherlink.com 1.10,2013-06-14 03:30:00,
2013-06-13 23:45:00,77.0,72.0,29.95,SW,224,0.0,6.0,83,0.00,,,0.00,weatherlink.com 1.10,2013-06-14 03:45:00,